sensor_id;sensor_type;location;lat;lon;timestamp;temperature;humidity
79698;SHT31;69168;42.708;23.286;2023-09-19T00:01:06;20.78;54.91
79698;SHT31;69168;42.708;23.286;2023-09-19T00:03:37;20.82;54.70
79698;SHT31;69168;42.708;23.286;2023-09-19T00:06:04;20.73;54.75
79698;SHT31;69168;42.708;23.286;2023-09-19T00:08:33;20.64;55.46
79698;SHT31;69168;42.708;23.286;2023-09-19T00:10:59;20.64;55.57
79698;SHT31;69168;42.708;23.286;2023-09-19T00:13:33;20.67;55.41
79698;SHT31;69168;42.708;23.286;2023-09-19T00:16:01;20.58;55.52
79698;SHT31;69168;42.708;23.286;2023-09-19T00:18:26;20.47;55.93
79698;SHT31;69168;42.708;23.286;2023-09-19T00:21:00;20.43;56.02
79698;SHT31;69168;42.708;23.286;2023-09-19T00:23:26;20.45;55.90
79698;SHT31;69168;42.708;23.286;2023-09-19T00:25:52;20.49;55.83
79698;SHT31;69168;42.708;23.286;2023-09-19T00:28:18;20.51;55.82
79698;SHT31;69168;42.708;23.286;2023-09-19T00:30:45;20.38;56.14
79698;SHT31;69168;42.708;23.286;2023-09-19T00:33:18;20.40;56.24
79698;SHT31;69168;42.708;23.286;2023-09-19T00:35:51;20.41;56.23
79698;SHT31;69168;42.708;23.286;2023-09-19T00:38:17;20.43;56.17
79698;SHT31;69168;42.708;23.286;2023-09-19T00:40:49;20.30;56.57
79698;SHT31;69168;42.708;23.286;2023-09-19T00:43:17;20.35;56.46
79698;SHT31;69168;42.708;23.286;2023-09-19T00:45:48;20.41;56.18
79698;SHT31;69168;42.708;23.286;2023-09-19T00:48:16;20.35;56.57
79698;SHT31;69168;42.708;23.286;2023-09-19T00:50:43;20.27;56.64
79698;SHT31;69168;42.708;23.286;2023-09-19T00:53:09;20.35;56.50
79698;SHT31;69168;42.708;23.286;2023-09-19T00:55:39;20.27;56.97
79698;SHT31;69168;42.708;23.286;2023-09-19T00:58:08;20.31;56.88
79698;SHT31;69168;42.708;23.286;2023-09-19T01:00:33;20.33;56.80
79698;SHT31;69168;42.708;23.286;2023-09-19T01:03:02;20.26;57.08
79698;SHT31;69168;42.708;23.286;2023-09-19T01:05:28;20.13;57.18
79698;SHT31;69168;42.708;23.286;2023-09-19T01:07:54;20.06;57.46
79698;SHT31;69168;42.708;23.286;2023-09-19T01:10:20;20.13;57.52
79698;SHT31;69168;42.708;23.286;2023-09-19T01:13:00;20.09;57.59
79698;SHT31;69168;42.708;23.286;2023-09-19T01:21:15;19.94;57.99
79698;SHT31;69168;42.708;23.286;2023-09-19T01:24:54;20.09;57.65
79698;SHT31;69168;42.708;23.286;2023-09-19T01:29:42;19.85;58.18
79698;SHT31;69168;42.708;23.286;2023-09-19T01:32:11;19.94;58.01
79698;SHT31;69168;42.708;23.286;2023-09-19T01:34:49;20.14;57.43
79698;SHT31;69168;42.708;23.286;2023-09-19T01:37:20;20.03;58.07
79698;SHT31;69168;42.708;23.286;2023-09-19T01:39:52;20.13;57.80
79698;SHT31;69168;42.708;23.286;2023-09-19T01:42:28;19.89;58.26
79698;SHT31;69168;42.708;23.286;2023-09-19T01:45:03;19.97;58.24
79698;SHT31;69168;42.708;23.286;2023-09-19T01:47:35;19.72;58.93
79698;SHT31;69168;42.708;23.286;2023-09-19T01:52:51;19.83;58.58
79698;SHT31;69168;42.708;23.286;2023-09-19T01:55:19;19.68;59.03
79698;SHT31;69168;42.708;23.286;2023-09-19T01:58:12;19.38;59.99
79698;SHT31;69168;42.708;23.286;2023-09-19T02:00:41;19.45;59.82
79698;SHT31;69168;42.708;23.286;2023-09-19T02:03:08;19.51;59.62
79698;SHT31;69168;42.708;23.286;2023-09-19T02:05:34;19.47;59.59
79698;SHT31;69168;42.708;23.286;2023-09-19T02:08:00;19.65;59.22
79698;SHT31;69168;42.708;23.286;2023-09-19T02:10:26;19.58;59.32
79698;SHT31;69168;42.708;23.286;2023-09-19T02:12:51;19.65;59.25
79698;SHT31;69168;42.708;23.286;2023-09-19T02:15:17;19.58;59.64
79698;SHT31;69168;42.708;23.286;2023-09-19T02:17:43;19.51;59.82
79698;SHT31;69168;42.708;23.286;2023-09-19T02:20:13;19.54;59.57
79698;SHT31;69168;42.708;23.286;2023-09-19T02:22:41;19.61;59.60
79698;SHT31;69168;42.708;23.286;2023-09-19T02:25:07;19.62;59.41
79698;SHT31;69168;42.708;23.286;2023-09-19T02:27:33;19.55;59.64
79698;SHT31;69168;42.708;23.286;2023-09-19T02:29:58;19.47;59.80
79698;SHT31;69168;42.708;23.286;2023-09-19T02:32:27;19.50;59.76
79698;SHT31;69168;42.708;23.286;2023-09-19T02:34:55;19.50;59.77
79698;SHT31;69168;42.708;23.286;2023-09-19T02:37:21;19.43;59.82
79698;SHT31;69168;42.708;23.286;2023-09-19T02:39:46;19.32;60.26
79698;SHT31;69168;42.708;23.286;2023-09-19T02:42:12;19.20;60.34
79698;SHT31;69168;42.708;23.286;2023-09-19T02:44:37;19.06;60.65
79698;SHT31;69168;42.708;23.286;2023-09-19T02:47:03;19.41;60.24
79698;SHT31;69168;42.708;23.286;2023-09-19T02:49:29;19.21;60.45
79698;SHT31;69168;42.708;23.286;2023-09-19T02:51:54;18.99;61.10
79698;SHT31;69168;42.708;23.286;2023-09-19T02:54:20;18.92;61.27
79698;SHT31;69168;42.708;23.286;2023-09-19T02:56:46;19.06;61.12
79698;SHT31;69168;42.708;23.286;2023-09-19T02:59:12;18.88;61.31
79698;SHT31;69168;42.708;23.286;2023-09-19T03:01:38;18.89;60.89
79698;SHT31;69168;42.708;23.286;2023-09-19T03:04:05;18.82;60.68
79698;SHT31;69168;42.708;23.286;2023-09-19T03:06:31;18.73;61.04
79698;SHT31;69168;42.708;23.286;2023-09-19T03:08:57;18.56;61.19
79698;SHT31;69168;42.708;23.286;2023-09-19T03:11:25;18.69;61.03
79698;SHT31;69168;42.708;23.286;2023-09-19T03:13:52;18.76;61.23
79698;SHT31;69168;42.708;23.286;2023-09-19T03:16:19;18.44;62.03
79698;SHT31;69168;42.708;23.286;2023-09-19T03:18:47;18.41;62.09
79698;SHT31;69168;42.708;23.286;2023-09-19T03:21:15;18.48;61.56
79698;SHT31;69168;42.708;23.286;2023-09-19T03:23:40;18.45;61.77
79698;SHT31;69168;42.708;23.286;2023-09-19T03:26:06;18.34;62.02
79698;SHT31;69168;42.708;23.286;2023-09-19T03:28:33;18.30;61.56
79698;SHT31;69168;42.708;23.286;2023-09-19T03:31:03;18.14;62.04
79698;SHT31;69168;42.708;23.286;2023-09-19T03:33:29;17.65;63.94
79698;SHT31;69168;42.708;23.286;2023-09-19T03:35:57;17.96;63.16
79698;SHT31;69168;42.708;23.286;2023-09-19T03:38:24;17.34;64.23
79698;SHT31;69168;42.708;23.286;2023-09-19T03:40:50;17.07;65.15
79698;SHT31;69168;42.708;23.286;2023-09-19T03:43:15;16.77;65.73
79698;SHT31;69168;42.708;23.286;2023-09-19T03:45:41;16.73;65.87
79698;SHT31;69168;42.708;23.286;2023-09-19T03:48:10;16.58;66.36
79698;SHT31;69168;42.708;23.286;2023-09-19T03:50:36;16.55;66.40
79698;SHT31;69168;42.708;23.286;2023-09-19T03:53:02;16.62;66.40
79698;SHT31;69168;42.708;23.286;2023-09-19T03:55:28;16.87;65.44
79698;SHT31;69168;42.708;23.286;2023-09-19T03:57:54;17.00;65.18
79698;SHT31;69168;42.708;23.286;2023-09-19T04:00:20;17.17;64.60
79698;SHT31;69168;42.708;23.286;2023-09-19T04:02:52;17.27;64.46
79698;SHT31;69168;42.708;23.286;2023-09-19T04:05:17;17.31;64.43
79698;SHT31;69168;42.708;23.286;2023-09-19T04:07:43;16.81;65.19
79698;SHT31;69168;42.708;23.286;2023-09-19T04:10:09;16.38;66.67
79698;SHT31;69168;42.708;23.286;2023-09-19T04:12:37;16.17;67.41
79698;SHT31;69168;42.708;23.286;2023-09-19T04:15:03;16.21;67.24
79698;SHT31;69168;42.708;23.286;2023-09-19T04:17:28;16.48;66.68
79698;SHT31;69168;42.708;23.286;2023-09-19T04:19:54;16.53;66.65
79698;SHT31;69168;42.708;23.286;2023-09-19T04:22:19;16.68;66.04
79698;SHT31;69168;42.708;23.286;2023-09-19T04:24:45;16.84;65.59
79698;SHT31;69168;42.708;23.286;2023-09-19T04:27:10;16.91;65.61
79698;SHT31;69168;42.708;23.286;2023-09-19T04:29:39;17.18;64.49
79698;SHT31;69168;42.708;23.286;2023-09-19T04:32:07;17.11;64.55
79698;SHT31;69168;42.708;23.286;2023-09-19T04:34:33;17.08;64.36
79698;SHT31;69168;42.708;23.286;2023-09-19T04:36:59;16.96;64.91
79698;SHT31;69168;42.708;23.286;2023-09-19T04:39:26;17.06;64.61
79698;SHT31;69168;42.708;23.286;2023-09-19T04:41:52;16.94;64.98
79698;SHT31;69168;42.708;23.286;2023-09-19T04:44:18;16.94;65.12
79698;SHT31;69168;42.708;23.286;2023-09-19T04:46:44;17.03;64.93
79698;SHT31;69168;42.708;23.286;2023-09-19T04:49:11;16.99;64.94
79698;SHT31;69168;42.708;23.286;2023-09-19T04:51:37;17.02;64.96
79698;SHT31;69168;42.708;23.286;2023-09-19T04:54:03;17.11;65.01
79698;SHT31;69168;42.708;23.286;2023-09-19T04:56:29;17.04;65.41
79698;SHT31;69168;42.708;23.286;2023-09-19T04:58:54;17.13;65.11
79698;SHT31;69168;42.708;23.286;2023-09-19T05:01:20;17.13;65.19
79698;SHT31;69168;42.708;23.286;2023-09-19T05:03:47;16.96;65.78
79698;SHT31;69168;42.708;23.286;2023-09-19T05:06:20;16.91;66.21
79698;SHT31;69168;42.708;23.286;2023-09-19T05:08:49;16.94;66.06
79698;SHT31;69168;42.708;23.286;2023-09-19T05:11:20;17.18;65.48
79698;SHT31;69168;42.708;23.286;2023-09-19T05:13:49;17.51;64.81
79698;SHT31;69168;42.708;23.286;2023-09-19T05:16:18;17.52;64.74
79698;SHT31;69168;42.708;23.286;2023-09-19T05:18:44;17.70;64.76
79698;SHT31;69168;42.708;23.286;2023-09-19T05:21:10;17.89;64.07
79698;SHT31;69168;42.708;23.286;2023-09-19T05:23:35;17.97;64.11
79698;SHT31;69168;42.708;23.286;2023-09-19T05:26:02;18.14;63.78
79698;SHT31;69168;42.708;23.286;2023-09-19T05:28:29;18.23;63.74
79698;SHT31;69168;42.708;23.286;2023-09-19T05:30:55;18.31;63.98
79698;SHT31;69168;42.708;23.286;2023-09-19T05:33:20;18.47;63.34
79698;SHT31;69168;42.708;23.286;2023-09-19T05:35:48;18.89;62.35
79698;SHT31;69168;42.708;23.286;2023-09-19T05:38:13;19.02;61.70
79698;SHT31;69168;42.708;23.286;2023-09-19T05:40:40;19.10;61.78
79698;SHT31;69168;42.708;23.286;2023-09-19T05:43:10;19.10;61.29
79698;SHT31;69168;42.708;23.286;2023-09-19T05:45:36;19.23;61.08
79698;SHT31;69168;42.708;23.286;2023-09-19T05:48:13;19.23;61.12
79698;SHT31;69168;42.708;23.286;2023-09-19T05:50:40;19.25;61.17
79698;SHT31;69168;42.708;23.286;2023-09-19T05:53:05;19.39;60.83
79698;SHT31;69168;42.708;23.286;2023-09-19T05:55:33;19.41;60.47
79698;SHT31;69168;42.708;23.286;2023-09-19T05:57:59;19.34;60.65
79698;SHT31;69168;42.708;23.286;2023-09-19T06:00:25;19.52;60.24
79698;SHT31;69168;42.708;23.286;2023-09-19T06:02:57;19.83;59.42
79698;SHT31;69168;42.708;23.286;2023-09-19T06:05:24;19.76;59.74
79698;SHT31;69168;42.708;23.286;2023-09-19T06:07:50;19.87;59.31
79698;SHT31;69168;42.708;23.286;2023-09-19T06:10:17;19.90;59.18
79698;SHT31;69168;42.708;23.286;2023-09-19T06:12:43;20.03;58.73
79698;SHT31;69168;42.708;23.286;2023-09-19T06:15:10;20.00;58.62
79698;SHT31;69168;42.708;23.286;2023-09-19T06:18:02;20.05;58.94
79698;SHT31;69168;42.708;23.286;2023-09-19T06:20:28;20.12;59.01
79698;SHT31;69168;42.708;23.286;2023-09-19T06:22:54;20.24;58.37
79698;SHT31;69168;42.708;23.286;2023-09-19T06:25:19;20.33;58.50
79698;SHT31;69168;42.708;23.286;2023-09-19T06:27:46;20.34;58.01
79698;SHT31;69168;42.708;23.286;2023-09-19T06:30:12;20.33;58.27
79698;SHT31;69168;42.708;23.286;2023-09-19T06:32:38;20.23;58.58
79698;SHT31;69168;42.708;23.286;2023-09-19T06:35:05;20.28;58.26
79698;SHT31;69168;42.708;23.286;2023-09-19T06:37:33;20.40;56.90
79698;SHT31;69168;42.708;23.286;2023-09-19T06:39:59;20.23;57.51
79698;SHT31;69168;42.708;23.286;2023-09-19T06:42:25;20.28;58.12
79698;SHT31;69168;42.708;23.286;2023-09-19T06:44:50;20.45;58.10
79698;SHT31;69168;42.708;23.286;2023-09-19T06:47:16;20.59;57.43
79698;SHT31;69168;42.708;23.286;2023-09-19T06:49:42;20.75;56.79
79698;SHT31;69168;42.708;23.286;2023-09-19T06:52:10;20.58;56.97
79698;SHT31;69168;42.708;23.286;2023-09-19T06:54:36;20.59;57.33
79698;SHT31;69168;42.708;23.286;2023-09-19T06:57:03;20.65;57.20
79698;SHT31;69168;42.708;23.286;2023-09-19T06:59:29;20.82;57.20
79698;SHT31;69168;42.708;23.286;2023-09-19T07:01:54;20.88;57.62
79698;SHT31;69168;42.708;23.286;2023-09-19T07:04:20;20.96;57.33
79698;SHT31;69168;42.708;23.286;2023-09-19T07:06:49;21.13;56.44
79698;SHT31;69168;42.708;23.286;2023-09-19T07:09:15;21.00;56.64
79698;SHT31;69168;42.708;23.286;2023-09-19T07:11:41;21.14;56.52
79698;SHT31;69168;42.708;23.286;2023-09-19T07:14:08;20.99;56.74
79698;SHT31;69168;42.708;23.286;2023-09-19T07:16:37;21.19;56.11
79698;SHT31;69168;42.708;23.286;2023-09-19T07:19:04;21.37;55.45
79698;SHT31;69168;42.708;23.286;2023-09-19T07:21:29;21.41;55.23
79698;SHT31;69168;42.708;23.286;2023-09-19T07:23:55;21.37;55.20
79698;SHT31;69168;42.708;23.286;2023-09-19T07:26:20;21.51;54.61
79698;SHT31;69168;42.708;23.286;2023-09-19T07:28:46;21.34;55.18
79698;SHT31;69168;42.708;23.286;2023-09-19T07:31:11;21.45;54.76
79698;SHT31;69168;42.708;23.286;2023-09-19T07:33:39;21.37;54.82
79698;SHT31;69168;42.708;23.286;2023-09-19T07:36:05;21.34;55.24
79698;SHT31;69168;42.708;23.286;2023-09-19T07:38:31;21.41;54.32
79698;SHT31;69168;42.708;23.286;2023-09-19T07:41:01;21.27;54.73
79698;SHT31;69168;42.708;23.286;2023-09-19T07:43:27;21.24;54.10
79698;SHT31;69168;42.708;23.286;2023-09-19T07:45:53;21.00;54.74
79698;SHT31;69168;42.708;23.286;2023-09-19T07:48:18;20.96;55.41
79698;SHT31;69168;42.708;23.286;2023-09-19T07:50:44;20.76;55.90
79698;SHT31;69168;42.708;23.286;2023-09-19T07:53:10;20.64;56.43
79698;SHT31;69168;42.708;23.286;2023-09-19T07:55:38;20.81;56.42
79698;SHT31;69168;42.708;23.286;2023-09-19T07:58:05;20.90;56.40
79698;SHT31;69168;42.708;23.286;2023-09-19T08:00:32;20.54;56.30
79698;SHT31;69168;42.708;23.286;2023-09-19T08:03:00;20.33;56.87
79698;SHT31;69168;42.708;23.286;2023-09-19T08:05:26;20.61;56.32
79698;SHT31;69168;42.708;23.286;2023-09-19T08:07:51;20.72;56.43
79698;SHT31;69168;42.708;23.286;2023-09-19T08:10:17;20.86;56.34
79698;SHT31;69168;42.708;23.286;2023-09-19T08:12:45;21.00;56.63
79698;SHT31;69168;42.708;23.286;2023-09-19T08:15:17;21.40;54.62
79698;SHT31;69168;42.708;23.286;2023-09-19T08:17:49;21.41;53.98
79698;SHT31;69168;42.708;23.286;2023-09-19T08:20:15;21.54;53.48
79698;SHT31;69168;42.708;23.286;2023-09-19T08:22:50;21.43;53.98
79698;SHT31;69168;42.708;23.286;2023-09-19T08:25:18;21.24;54.63
79698;SHT31;69168;42.708;23.286;2023-09-19T08:27:47;21.26;55.18
79698;SHT31;69168;42.708;23.286;2023-09-19T08:30:15;21.36;55.25
79698;SHT31;69168;42.708;23.286;2023-09-19T08:32:41;21.66;54.06
79698;SHT31;69168;42.708;23.286;2023-09-19T08:35:08;21.54;54.40
79698;SHT31;69168;42.708;23.286;2023-09-19T08:37:35;21.31;54.70
79698;SHT31;69168;42.708;23.286;2023-09-19T08:40:00;21.51;54.44
79698;SHT31;69168;42.708;23.286;2023-09-19T08:42:26;21.45;54.97
79698;SHT31;69168;42.708;23.286;2023-09-19T08:44:52;21.23;54.89
79698;SHT31;69168;42.708;23.286;2023-09-19T08:47:41;21.16;55.05
79698;SHT31;69168;42.708;23.286;2023-09-19T08:50:19;21.38;55.18
79698;SHT31;69168;42.708;23.286;2023-09-19T08:52:51;21.71;55.24
79698;SHT31;69168;42.708;23.286;2023-09-19T08:55:19;21.93;54.24
79698;SHT31;69168;42.708;23.286;2023-09-19T08:57:49;22.13;53.69
79698;SHT31;69168;42.708;23.286;2023-09-19T09:00:15;22.09;53.95
79698;SHT31;69168;42.708;23.286;2023-09-19T09:02:46;22.32;53.25
79698;SHT31;69168;42.708;23.286;2023-09-19T09:05:13;22.36;53.19
79698;SHT31;69168;42.708;23.286;2023-09-19T09:07:41;22.47;52.75
79698;SHT31;69168;42.708;23.286;2023-09-19T09:10:07;22.46;52.81
79698;SHT31;69168;42.708;23.286;2023-09-19T09:12:33;22.43;53.11
79698;SHT31;69168;42.708;23.286;2023-09-19T09:15:02;22.68;51.95
79698;SHT31;69168;42.708;23.286;2023-09-19T09:17:29;22.61;51.53
79698;SHT31;69168;42.708;23.286;2023-09-19T09:19:55;22.60;51.26
79698;SHT31;69168;42.708;23.286;2023-09-19T09:22:21;22.63;51.75
79698;SHT31;69168;42.708;23.286;2023-09-19T09:27:23;22.84;51.83
79698;SHT31;69168;42.708;23.286;2023-09-19T09:29:50;22.94;51.97
79698;SHT31;69168;42.708;23.286;2023-09-19T09:32:17;23.13;51.15
79698;SHT31;69168;42.708;23.286;2023-09-19T09:34:44;23.18;51.44
79698;SHT31;69168;42.708;23.286;2023-09-19T09:37:16;23.39;50.57
79698;SHT31;69168;42.708;23.286;2023-09-19T09:39:55;23.44;50.19
79698;SHT31;69168;42.708;23.286;2023-09-19T09:42:36;23.44;50.70
79698;SHT31;69168;42.708;23.286;2023-09-19T09:45:17;23.57;50.36
79698;SHT31;69168;42.708;23.286;2023-09-19T09:47:43;23.79;49.53
79698;SHT31;69168;42.708;23.286;2023-09-19T09:50:24;23.81;49.29
79698;SHT31;69168;42.708;23.286;2023-09-19T09:52:55;23.88;49.00
79698;SHT31;69168;42.708;23.286;2023-09-19T09:55:27;24.02;48.69
79698;SHT31;69168;42.708;23.286;2023-09-19T09:58:22;24.02;48.03
79698;SHT31;69168;42.708;23.286;2023-09-19T10:00:55;23.79;48.28
79698;SHT31;69168;42.708;23.286;2023-09-19T10:03:43;23.73;48.65
79698;SHT31;69168;42.708;23.286;2023-09-19T10:06:14;23.88;48.52
79698;SHT31;69168;42.708;23.286;2023-09-19T10:09:07;23.73;49.56
79698;SHT31;69168;42.708;23.286;2023-09-19T10:11:35;23.73;49.87
79698;SHT31;69168;42.708;23.286;2023-09-19T10:14:06;23.73;50.09
79698;SHT31;69168;42.708;23.286;2023-09-19T10:16:38;23.82;49.88
79698;SHT31;69168;42.708;23.286;2023-09-19T10:19:07;24.06;48.75
79698;SHT31;69168;42.708;23.286;2023-09-19T10:21:35;24.08;48.98
79698;SHT31;69168;42.708;23.286;2023-09-19T10:24:03;24.09;48.74
79698;SHT31;69168;42.708;23.286;2023-09-19T10:26:34;23.99;48.99
79698;SHT31;69168;42.708;23.286;2023-09-19T10:29:01;24.09;48.43
79698;SHT31;69168;42.708;23.286;2023-09-19T10:31:29;23.86;48.43
79698;SHT31;69168;42.708;23.286;2023-09-19T10:34:02;23.89;48.57
79698;SHT31;69168;42.708;23.286;2023-09-19T10:36:32;23.89;48.70
79698;SHT31;69168;42.708;23.286;2023-09-19T10:39:01;23.98;48.68
79698;SHT31;69168;42.708;23.286;2023-09-19T10:41:31;24.10;48.16
79698;SHT31;69168;42.708;23.286;2023-09-19T10:44:03;24.49;46.63
79698;SHT31;69168;42.708;23.286;2023-09-19T10:46:28;24.23;47.13
79698;SHT31;69168;42.708;23.286;2023-09-19T10:48:59;24.02;48.17
79698;SHT31;69168;42.708;23.286;2023-09-19T10:51:29;23.94;47.94
79698;SHT31;69168;42.708;23.286;2023-09-19T10:54:10;23.95;48.57
79698;SHT31;69168;42.708;23.286;2023-09-19T10:56:42;23.95;48.97
79698;SHT31;69168;42.708;23.286;2023-09-19T10:59:20;24.08;48.39
79698;SHT31;69168;42.708;23.286;2023-09-19T11:01:52;24.15;48.01
79698;SHT31;69168;42.708;23.286;2023-09-19T11:04:29;24.25;47.88
79698;SHT31;69168;42.708;23.286;2023-09-19T11:07:11;24.35;47.75
79698;SHT31;69168;42.708;23.286;2023-09-19T11:09:55;24.35;47.81
79698;SHT31;69168;42.708;23.286;2023-09-19T11:26:48;24.74;47.52
79698;SHT31;69168;42.708;23.286;2023-09-19T11:29:30;24.83;47.89
79698;SHT31;69168;42.708;23.286;2023-09-19T11:31:56;24.75;47.60
79698;SHT31;69168;42.708;23.286;2023-09-19T11:39:40;25.66;46.20
79698;SHT31;69168;42.708;23.286;2023-09-19T11:42:44;25.87;44.39
79698;SHT31;69168;42.708;23.286;2023-09-19T11:48:16;25.39;45.34
79698;SHT31;69168;42.708;23.286;2023-09-19T11:50:44;25.18;45.85
79698;SHT31;69168;42.708;23.286;2023-09-19T11:53:11;25.25;46.04
79698;SHT31;69168;42.708;23.286;2023-09-19T11:55:41;25.15;45.81
79698;SHT31;69168;42.708;23.286;2023-09-19T11:58:09;25.43;45.77
79698;SHT31;69168;42.708;23.286;2023-09-19T12:00:38;25.70;45.86
79698;SHT31;69168;42.708;23.286;2023-09-19T12:03:10;26.17;45.39
79698;SHT31;69168;42.708;23.286;2023-09-19T12:05:37;26.57;44.55
79698;SHT31;69168;42.708;23.286;2023-09-19T12:08:04;26.90;44.07
79698;SHT31;69168;42.708;23.286;2023-09-19T12:10:33;27.02;43.65
79698;SHT31;69168;42.708;23.286;2023-09-19T12:12:58;27.32;42.52
79698;SHT31;69168;42.708;23.286;2023-09-19T12:15:27;27.62;42.24
79698;SHT31;69168;42.708;23.286;2023-09-19T12:17:59;28.03;41.32
79698;SHT31;69168;42.708;23.286;2023-09-19T12:20:25;28.21;40.96
79698;SHT31;69168;42.708;23.286;2023-09-19T12:22:50;28.44;40.71
79698;SHT31;69168;42.708;23.286;2023-09-19T12:25:16;28.76;38.97
79698;SHT31;69168;42.708;23.286;2023-09-19T12:27:43;28.72;38.51
79698;SHT31;69168;42.708;23.286;2023-09-19T12:30:12;28.69;38.65
79698;SHT31;69168;42.708;23.286;2023-09-19T12:32:40;28.59;39.23
79698;SHT31;69168;42.708;23.286;2023-09-19T12:35:08;28.87;39.27
79698;SHT31;69168;42.708;23.286;2023-09-19T12:37:45;29.30;38.08
79698;SHT31;69168;42.708;23.286;2023-09-19T12:40:13;29.55;37.95
79698;SHT31;69168;42.708;23.286;2023-09-19T12:42:48;29.58;38.43
79698;SHT31;69168;42.708;23.286;2023-09-19T12:45:15;29.45;38.23
79698;SHT31;69168;42.708;23.286;2023-09-19T12:51:08;29.58;38.18
79698;SHT31;69168;42.708;23.286;2023-09-19T12:53:39;29.66;38.14
79698;SHT31;69168;42.708;23.286;2023-09-19T12:56:13;29.77;37.47
79698;SHT31;69168;42.708;23.286;2023-09-19T12:58:58;30.32;36.18
79698;SHT31;69168;42.708;23.286;2023-09-19T13:01:28;30.02;37.18
79698;SHT31;69168;42.708;23.286;2023-09-19T13:06:40;29.99;37.63
79698;SHT31;69168;42.708;23.286;2023-09-19T13:09:09;30.45;36.73
79698;SHT31;69168;42.708;23.286;2023-09-19T13:11:38;30.89;35.34
79698;SHT31;69168;42.708;23.286;2023-09-19T13:14:27;31.31;34.80
79698;SHT31;69168;42.708;23.286;2023-09-19T13:17:07;31.19;35.13
79698;SHT31;69168;42.708;23.286;2023-09-19T13:19:47;31.13;35.44
79698;SHT31;69168;42.708;23.286;2023-09-19T13:22:43;31.34;35.47
79698;SHT31;69168;42.708;23.286;2023-09-19T13:25:19;30.59;35.98
79698;SHT31;69168;42.708;23.286;2023-09-19T13:27:50;30.96;35.86
79698;SHT31;69168;42.708;23.286;2023-09-19T13:30:18;31.17;35.30
79698;SHT31;69168;42.708;23.286;2023-09-19T13:32:44;31.37;35.15
79698;SHT31;69168;42.708;23.286;2023-09-19T13:35:14;31.72;34.83
79698;SHT31;69168;42.708;23.286;2023-09-19T13:37:41;32.20;33.88
79698;SHT31;69168;42.708;23.286;2023-09-19T13:40:11;31.99;34.10
79698;SHT31;69168;42.708;23.286;2023-09-19T13:42:37;31.82;33.79
79698;SHT31;69168;42.708;23.286;2023-09-19T13:45:05;32.41;33.25
79698;SHT31;69168;42.708;23.286;2023-09-19T13:47:32;32.96;32.20
79698;SHT31;69168;42.708;23.286;2023-09-19T13:49:58;32.56;33.34
79698;SHT31;69168;42.708;23.286;2023-09-19T13:52:25;32.14;33.56
79698;SHT31;69168;42.708;23.286;2023-09-19T13:54:54;31.44;34.95
79698;SHT31;69168;42.708;23.286;2023-09-19T13:57:25;31.23;35.38
79698;SHT31;69168;42.708;23.286;2023-09-19T13:59:52;31.34;34.95
79698;SHT31;69168;42.708;23.286;2023-09-19T14:02:19;31.24;35.06
79698;SHT31;69168;42.708;23.286;2023-09-19T14:04:44;31.30;35.04
79698;SHT31;69168;42.708;23.286;2023-09-19T14:07:10;31.40;34.71
79698;SHT31;69168;42.708;23.286;2023-09-19T14:09:36;31.68;35.35
79698;SHT31;69168;42.708;23.286;2023-09-19T14:12:02;31.55;35.42
79698;SHT31;69168;42.708;23.286;2023-09-19T14:14:28;31.71;35.35
79698;SHT31;69168;42.708;23.286;2023-09-19T14:16:53;32.03;35.17
79698;SHT31;69168;42.708;23.286;2023-09-19T14:19:20;32.36;34.03
79698;SHT31;69168;42.708;23.286;2023-09-19T14:21:45;31.99;34.57
79698;SHT31;69168;42.708;23.286;2023-09-19T14:24:11;31.62;35.17
79698;SHT31;69168;42.708;23.286;2023-09-19T14:26:41;31.86;34.83
79698;SHT31;69168;42.708;23.286;2023-09-19T14:29:06;31.65;35.84
79698;SHT31;69168;42.708;23.286;2023-09-19T14:31:37;31.79;36.30
79698;SHT31;69168;42.708;23.286;2023-09-19T14:34:05;31.58;35.16
79698;SHT31;69168;42.708;23.286;2023-09-19T14:36:31;31.41;35.56
79698;SHT31;69168;42.708;23.286;2023-09-19T14:38:57;31.23;35.50
79698;SHT31;69168;42.708;23.286;2023-09-19T14:41:23;31.16;35.72
79698;SHT31;69168;42.708;23.286;2023-09-19T14:43:51;31.06;36.12
79698;SHT31;69168;42.708;23.286;2023-09-19T14:46:17;30.82;36.21
79698;SHT31;69168;42.708;23.286;2023-09-19T14:48:43;30.55;36.68
79698;SHT31;69168;42.708;23.286;2023-09-19T14:51:09;30.41;37.25
79698;SHT31;69168;42.708;23.286;2023-09-19T14:53:36;30.11;36.85
79698;SHT31;69168;42.708;23.286;2023-09-19T14:56:03;30.09;37.10
79698;SHT31;69168;42.708;23.286;2023-09-19T14:58:32;29.94;37.15
79698;SHT31;69168;42.708;23.286;2023-09-19T15:01:12;29.75;37.48
79698;SHT31;69168;42.708;23.286;2023-09-19T15:03:39;29.82;38.25
79698;SHT31;69168;42.708;23.286;2023-09-19T15:06:13;29.77;38.39
79698;SHT31;69168;42.708;23.286;2023-09-19T15:08:48;29.70;38.45
79698;SHT31;69168;42.708;23.286;2023-09-19T15:11:14;29.73;38.43
79698;SHT31;69168;42.708;23.286;2023-09-19T15:13:42;29.69;37.85
79698;SHT31;69168;42.708;23.286;2023-09-19T15:16:07;29.51;38.49
79698;SHT31;69168;42.708;23.286;2023-09-19T15:18:37;29.48;38.47
79698;SHT31;69168;42.708;23.286;2023-09-19T15:21:06;29.45;38.73
79698;SHT31;69168;42.708;23.286;2023-09-19T15:23:35;29.39;38.43
79698;SHT31;69168;42.708;23.286;2023-09-19T15:26:06;29.08;39.27
79698;SHT31;69168;42.708;23.286;2023-09-19T15:28:32;28.83;39.90
79698;SHT31;69168;42.708;23.286;2023-09-19T15:31:12;28.72;40.48
79698;SHT31;69168;42.708;23.286;2023-09-19T15:33:38;28.69;40.48
79698;SHT31;69168;42.708;23.286;2023-09-19T15:36:07;28.56;40.60
79698;SHT31;69168;42.708;23.286;2023-09-19T15:39:02;28.39;41.17
79698;SHT31;69168;42.708;23.286;2023-09-19T15:41:32;28.27;41.34
79698;SHT31;69168;42.708;23.286;2023-09-19T15:43:59;28.10;41.20
79698;SHT31;69168;42.708;23.286;2023-09-19T15:46:27;28.05;41.33
79698;SHT31;69168;42.708;23.286;2023-09-19T15:48:56;27.97;41.82
79698;SHT31;69168;42.708;23.286;2023-09-19T15:51:22;27.82;41.93
79698;SHT31;69168;42.708;23.286;2023-09-19T15:53:50;27.70;42.16
79698;SHT31;69168;42.708;23.286;2023-09-19T15:56:17;27.49;42.73
79698;SHT31;69168;42.708;23.286;2023-09-19T15:58:46;27.35;42.82
79698;SHT31;69168;42.708;23.286;2023-09-19T16:01:12;27.27;42.95
79698;SHT31;69168;42.708;23.286;2023-09-19T16:03:39;27.16;43.03
79698;SHT31;69168;42.708;23.286;2023-09-19T16:06:13;27.07;43.43
79698;SHT31;69168;42.708;23.286;2023-09-19T16:08:40;26.97;43.79